Time;durP1;ratioP1;P1;durP2;ratioP2;P2;SDS_P1;SDS_P2;PMS_P1;PMS_P2;Temp;Humidity;BMP_temperature;BMP_pressure;BME280_temperature;BME280_humidity;BME280_pressure;Samples;Min_cycle;Max_cycle;Signal;HPM_P1;HPM_P2
2023/03/31 00:01:40;;;;;;;18.70;15.60;;;;;;;9.54;100.00;98168.23;109497;1254;59062;-72
2023/03/31 00:04:08;;;;;;;15.50;13.80;;;;;;;9.51;100.00;98169.14;109486;1253;64024;-72
2023/03/31 00:07:21;;;;;;;16.50;14.80;;;;;;;9.46;100.00;98171.98;109469;1253;58956;-72
2023/03/31 00:14:38;;;;;;;16.00;13.70;;;;;;;9.40;100.00;98174.92;109501;1252;65839;-72
2023/03/31 00:17:04;;;;;;;16.40;13.50;;;;;;;9.39;100.00;98179.27;109534;1252;60164;-72
2023/03/31 00:19:32;;;;;;;18.10;14.60;;;;;;;9.39;100.00;98179.63;109490;1251;62867;-72
2023/03/31 00:22:01;;;;;;;18.50;15.10;;;;;;;9.37;100.00;98178.12;109491;1252;59029;-72
2023/03/31 00:24:31;;;;;;;16.90;14.80;;;;;;;9.34;100.00;98183.86;109502;1254;58929;-72
2023/03/31 00:26:59;;;;;;;19.80;15.10;;;;;;;9.30;100.00;98188.21;109191;1253;66041;-73
2023/03/31 00:29:25;;;;;;;18.10;15.40;;;;;;;9.27;100.00;98189.34;109537;1253;60275;-72
2023/03/31 00:31:52;;;;;;;16.00;14.30;;;;;;;9.23;100.00;98188.89;109487;1252;64063;-72
2023/03/31 00:34:19;;;;;;;18.50;15.50;;;;;;;9.20;100.00;98189.10;109504;1254;59183;-72
2023/03/31 00:36:48;;;;;;;19.60;14.60;;;;;;;9.19;100.00;98186.73;109204;1256;58985;-72
2023/03/31 00:39:17;;;;;;;17.10;15.30;;;;;;;9.17;100.00;98180.37;109195;1257;66067;-72
2023/03/31 00:41:44;;;;;;;17.80;15.30;;;;;;;9.12;100.00;98180.20;109235;1256;59069;-72
2023/03/31 00:44:17;;;;;;;16.90;15.20;;;;;;;9.09;100.00;98180.96;109202;1256;63405;-72
2023/03/31 00:47:01;;;;;;;17.90;14.60;;;;;;;9.07;100.00;98180.42;109172;1257;58953;-72
2023/03/31 00:49:30;;;;;;;14.70;13.20;;;;;;;9.05;100.00;98183.17;109193;1256;59043;-72
2023/03/31 00:52:06;;;;;;;18.10;14.60;;;;;;;9.05;100.00;98178.43;109193;1256;66083;-72
2023/03/31 00:54:35;;;;;;;16.70;14.40;;;;;;;9.03;100.00;98178.20;109203;1255;60196;-72
2023/03/31 00:57:05;;;;;;;15.90;14.30;;;;;;;9.01;100.00;98175.52;109068;1256;64394;-72
2023/03/31 00:59:35;;;;;;;;;;;;;;;9.00;100.00;98176.95;109155;1255;59095;-72
2023/03/31 01:02:03;;;;;;;16.90;13.20;;;;;;;8.99;100.00;98171.96;109229;1256;58930;-72
2023/03/31 01:04:35;;;;;;;15.70;13.20;;;;;;;8.97;100.00;98172.23;109055;1256;66200;-73
2023/03/31 01:07:11;;;;;;;15.20;13.70;;;;;;;8.97;100.00;98172.25;109204;1252;59274;-72
2023/03/31 01:09:38;;;;;;;17.30;13.10;;;;;;;8.97;100.00;98172.28;109517;1253;64110;-72
2023/03/31 01:12:09;;;;;;;17.70;14.80;;;;;;;8.97;100.00;98169.08;109474;1252;58976;-72
2023/03/31 01:14:36;;;;;;;18.70;15.50;;;;;;;8.97;100.00;98170.14;109512;1252;58924;-72
2023/03/31 01:17:03;;;;;;;18.40;14.80;;;;;;;8.98;100.00;98174.15;109218;1251;60160;-73
2023/03/31 01:19:45;;;;;;;17.80;15.20;;;;;;;8.98;100.00;98173.42;109538;1254;60150;-73
2023/03/31 01:22:21;;;;;;;15.70;14.10;;;;;;;8.98;100.00;98175.20;109477;1253;64122;-72
2023/03/31 01:25:25;;;;;;;15.40;13.70;;;;;;;8.98;100.00;98173.77;109473;1253;58929;-72
2023/03/31 01:28:00;;;;;;;14.30;12.80;;;;;;;8.97;100.00;98173.48;109532;1252;59175;-72
2023/03/31 01:30:59;;;;;;;14.10;12.30;;;;;;;8.96;100.00;98172.10;109523;1252;64886;-70
2023/03/31 01:33:25;;;;;;;15.50;14.00;;;;;;;8.97;100.00;98168.70;109470;1251;59147;-72
2023/03/31 01:36:05;;;;;;;15.00;12.20;;;;;;;8.97;100.00;98163.54;109485;1252;59255;-72
2023/03/31 01:38:48;;;;;;;12.50;11.20;;;;;;;8.99;100.00;98163.77;109528;1254;59004;-72
2023/03/31 01:41:39;;;;;;;13.00;11.40;;;;;;;9.00;100.00;98161.74;109145;1252;59135;-73
2023/03/31 01:44:25;;;;;;;13.30;10.90;;;;;;;9.01;100.00;98162.72;109526;1251;66456;-72
2023/03/31 01:47:03;;;;;;;11.90;10.30;;;;;;;9.03;100.00;98159.95;108853;1260;60152;-72
2023/03/31 01:49:49;;;;;;;11.90;10.80;;;;;;;9.04;100.00;98160.21;108869;1260;62816;-73
2023/03/31 01:52:37;;;;;;;12.10;10.80;;;;;;;9.06;100.00;98162.25;108801;1264;59127;-72
2023/03/31 01:55:10;;;;;;;11.70;10.40;;;;;;;9.07;100.00;98162.48;108826;1262;58904;-73
2023/03/31 01:57:46;;;;;;;10.90;9.80;;;;;;;9.08;100.00;98162.79;108849;1261;64849;-73
2023/03/31 02:00:55;;;;;;;11.10;9.60;;;;;;;9.08;100.00;98162.38;108838;1264;60318;-73
2023/03/31 02:03:28;;;;;;;10.80;8.90;;;;;;;9.09;100.00;98164.32;108799;1261;65239;-73
2023/03/31 02:05:59;;;;;;;9.50;8.60;;;;;;;9.09;100.00;98167.32;108816;1261;59083;-72
2023/03/31 02:08:32;;;;;;;11.70;9.00;;;;;;;9.09;100.00;98166.97;108768;1262;59086;-72
2023/03/31 02:11:00;;;;;;;9.20;8.30;;;;;;;9.08;100.00;98164.67;108856;1261;66763;-72
2023/03/31 02:13:28;;;;;;;8.80;7.90;;;;;;;9.09;100.00;98162.20;108877;1260;60675;-73
2023/03/31 02:16:01;;;;;;;9.40;8.20;;;;;;;9.07;100.00;98158.55;108861;1260;64851;-70
2023/03/31 02:18:32;;;;;;;8.10;7.40;;;;;;;9.06;100.00;98160.24;108868;1260;59036;-70
2023/03/31 02:21:00;;;;;;;8.70;7.50;;;;;;;9.06;100.00;98158.82;108877;1261;59002;-73
2023/03/31 02:23:30;;;;;;;8.10;7.10;;;;;;;9.06;100.00;98151.23;109006;1253;66854;-71
2023/03/31 02:26:07;;;;;;;8.30;7.40;;;;;;;9.03;100.00;98151.63;109503;1253;59828;-71
2023/03/31 02:28:34;;;;;;;8.40;7.60;;;;;;;9.00;100.00;98150.98;109501;1253;64793;-72
2023/03/31 02:31:21;;;;;;;7.70;6.90;;;;;;;8.96;100.00;98148.58;109473;1253;58999;-72
2023/03/31 02:33:48;;;;;;;8.90;7.20;;;;;;;8.94;100.00;98152.45;109541;1251;59002;-72
2023/03/31 02:36:15;;;;;;;10.00;7.90;;;;;;;8.93;100.00;98153.79;109491;1252;67765;-72
2023/03/31 02:38:46;;;;;;;10.70;7.60;;;;;;;8.92;100.00;98152.92;109511;1253;60723;-72
2023/03/31 02:41:13;;;;;;;10.90;8.70;;;;;;;8.92;100.00;98149.40;109522;1252;64793;-72
2023/03/31 02:43:39;;;;;;;11.00;9.50;;;;;;;8.91;100.00;98152.66;109485;1252;58967;-72
2023/03/31 02:46:06;;;;;;;11.40;8.40;;;;;;;8.90;100.00;98152.75;109509;1253;59091;-72
2023/03/31 02:48:37;;;;;;;8.80;7.00;;;;;;;8.90;100.00;98151.34;109505;1253;66707;-71
2023/03/31 02:51:10;;;;;;;9.90;6.10;;;;;;;8.90;100.00;98151.30;109484;1253;60750;-71
2023/03/31 02:53:57;;;;;;;7.10;6.20;;;;;;;8.91;100.00;98147.88;109230;1252;63720;-72
2023/03/31 02:56:27;;;;;;;10.20;6.20;;;;;;;8.92;100.00;98146.60;109515;1253;58871;-71
2023/03/31 02:59:00;;;;;;;6.70;5.50;;;;;;;8.92;100.00;98146.60;109469;1253;59205;-71
2023/03/31 03:01:32;;;;;;;6.30;5.30;;;;;;;8.90;100.00;98143.04;109537;1252;66906;-71
2023/03/31 03:04:10;;;;;;;6.70;4.90;;;;;;;8.88;100.00;98144.44;109523;1253;59721;-71
2023/03/31 03:06:56;;;;;;;6.90;5.60;;;;;;;8.84;100.00;98142.04;109530;1253;65133;-72
2023/03/31 03:09:50;;;;;;;6.70;5.40;;;;;;;8.81;100.00;98138.02;109475;1253;59067;-74
2023/03/31 03:12:33;;;;;;;5.70;4.80;;;;;;;8.79;100.00;98137.45;109519;1252;58964;-72
2023/03/31 03:15:06;;;;;;;7.30;5.30;;;;;;;8.77;100.00;98137.38;109513;1253;65676;-72
2023/03/31 03:17:43;;;;;;;5.70;5.10;;;;;;;8.77;100.00;98134.39;109529;1253;68530;-73
2023/03/31 03:20:11;;;;;;;5.40;4.70;;;;;;;8.77;100.00;98129.79;109375;1253;64718;-73
2023/03/31 03:22:39;;;;;;;6.70;5.00;;;;;;;8.77;100.00;98133.48;109488;1253;58993;-71
2023/03/31 03:25:08;;;;;;;5.20;4.80;;;;;;;8.76;100.00;98135.51;109533;1252;58884;-73
2023/03/31 03:27:36;;;;;;;5.50;5.00;;;;;;;8.75;100.00;98138.26;109549;1253;67471;-71
2023/03/31 03:30:05;;;;;;;6.20;5.60;;;;;;;8.76;100.00;98138.88;109513;1251;59716;-72
2023/03/31 03:32:32;;;;;;;6.00;5.40;;;;;;;8.76;100.00;98137.43;109305;1253;64072;-72
2023/03/31 03:35:00;;;;;;;6.00;5.30;;;;;;;8.77;100.00;98135.63;109530;1252;59013;-72
2023/03/31 03:37:29;;;;;;;5.30;4.80;;;;;;;8.77;100.00;98132.09;109517;1252;58986;-72
2023/03/31 03:39:56;;;;;;;7.00;5.90;;;;;;;8.77;100.00;98126.42;109534;1252;67207;-72
2023/03/31 03:42:23;;;;;;;5.90;5.20;;;;;;;8.76;100.00;98126.15;109534;1252;61855;-72
2023/03/31 03:44:49;;;;;;;7.00;5.70;;;;;;;8.74;100.00;98126.10;109475;1252;64799;-72
2023/03/31 03:47:16;;;;;;;7.30;6.00;;;;;;;8.72;100.00;98124.65;109504;1253;58878;-72
2023/03/31 03:49:43;;;;;;;8.10;7.30;;;;;;;8.70;100.00;98124.29;109400;1252;59084;-72
2023/03/31 03:52:09;;;;;;;6.70;5.80;;;;;;;8.69;100.00;98115.15;109491;1251;66709;-72
2023/03/31 03:54:36;;;;;;;6.40;5.70;;;;;;;8.68;100.00;98115.55;109514;1251;59757;-72
2023/03/31 03:57:02;;;;;;;8.30;5.80;;;;;;;8.67;100.00;98116.16;109488;1253;64803;-72
2023/03/31 03:59:29;;;;;;;6.70;5.90;;;;;;;8.66;100.00;98111.29;109512;1253;59015;-72
2023/03/31 04:01:55;;;;;;;6.30;5.30;;;;;;;8.65;100.00;98111.34;109519;1252;58827;-72
2023/03/31 04:04:22;;;;;;;6.60;5.90;;;;;;;8.64;100.00;98109.29;109519;1252;66657;-72
2023/03/31 04:06:49;;;;;;;8.80;8.00;;;;;;;8.64;100.00;98109.33;109184;1253;60693;-72
2023/03/31 04:09:16;;;;;;;8.30;7.00;;;;;;;8.62;100.00;98100.75;109497;1253;64746;-73
2023/03/31 04:11:43;;;;;;;8.30;7.50;;;;;;;8.61;100.00;98099.45;109500;1252;58946;-73
2023/03/31 04:14:09;;;;;;;8.10;6.60;;;;;;;8.59;100.00;98101.58;109533;1252;58954;-73
2023/03/31 04:16:37;;;;;;;7.10;6.20;;;;;;;8.55;100.00;98095.27;109495;1252;66780;-72
2023/03/31 04:19:03;;;;;;;6.80;5.90;;;;;;;8.53;100.00;98095.80;109472;1253;60263;-72
2023/03/31 04:21:33;;;;;;;7.10;5.90;;;;;;;8.52;100.00;98097.95;109522;1253;65052;-73
2023/03/31 04:24:03;;;;;;;6.80;6.20;;;;;;;8.53;100.00;98092.23;109350;1253;59008;-73
2023/03/31 04:26:41;;;;;;;6.90;6.20;;;;;;;8.52;100.00;98088.21;109500;1252;58896;-72
2023/03/31 04:29:14;;;;;;;6.90;6.00;;;;;;;8.52;100.00;98084.70;109508;1253;67097;-72
2023/03/31 04:31:42;;;;;;;7.50;6.00;;;;;;;8.52;100.00;98085.21;109528;1252;61227;-73
2023/03/31 04:34:14;;;;;;;8.90;7.70;;;;;;;8.52;100.00;98085.94;109408;1252;65130;-73
2023/03/31 04:36:45;;;;;;;6.70;6.10;;;;;;;8.54;100.00;98086.67;109516;1252;59102;-73
2023/03/31 04:39:14;;;;;;;7.90;6.40;;;;;;;8.56;100.00;98088.79;109183;1254;59483;-73
2023/03/31 04:41:40;;;;;;;6.30;5.70;;;;;;;8.60;100.00;98087.86;109469;1252;64825;-72
2023/03/31 04:44:07;;;;;;;6.40;5.50;;;;;;;8.62;100.00;98090.71;109511;1251;60743;-73
2023/03/31 04:46:34;;;;;;;6.60;5.60;;;;;;;8.64;100.00;98090.20;109529;1253;64705;-72
2023/03/31 04:49:01;;;;;;;6.70;6.00;;;;;;;8.66;100.00;98093.42;109528;1251;59138;-73
2023/03/31 04:51:28;;;;;;;8.70;5.60;;;;;;;8.68;100.00;98087.25;109548;1252;59042;-72
2023/03/31 04:53:55;;;;;;;6.60;5.90;;;;;;;8.70;100.00;98087.27;109546;1252;66839;-73
2023/03/31 04:56:21;;;;;;;6.30;5.70;;;;;;;8.71;100.00;98083.31;109281;1254;59802;-73
2023/03/31 04:58:48;;;;;;;6.80;5.90;;;;;;;8.72;100.00;98073.52;109577;1252;63981;-73
2023/03/31 05:01:17;;;;;;;7.10;6.40;;;;;;;8.72;100.00;98071.73;109517;1251;59026;-72
2023/03/31 05:03:46;;;;;;;8.70;6.60;;;;;;;8.70;100.00;98063.19;109500;1253;58915;-73
2023/03/31 05:06:14;;;;;;;6.60;5.80;;;;;;;8.67;100.00;98061.83;109511;1251;66974;-73
2023/03/31 05:08:41;;;;;;;9.20;6.30;;;;;;;8.64;100.00;98060.08;109561;1252;60811;-73
2023/03/31 05:11:07;;;;;;;7.00;6.30;;;;;;;8.62;100.00;98055.67;109113;1253;65037;-72
2023/03/31 05:13:34;;;;;;;7.40;6.70;;;;;;;8.61;100.00;98051.86;109473;1253;59027;-72
2023/03/31 05:16:06;;;;;;;7.80;7.10;;;;;;;8.61;100.00;98053.27;109524;1253;59107;-72
2023/03/31 05:18:33;;;;;;;7.90;6.50;;;;;;;8.62;100.00;98054.92;109474;1252;67171;-72
2023/03/31 05:21:15;;;;;;;8.20;6.40;;;;;;;8.65;100.00;98053.62;109510;1253;59732;-73
2023/03/31 05:23:42;;;;;;;8.00;7.10;;;;;;;8.70;100.00;98051.17;109088;1254;62447;-72
2023/03/31 05:26:09;;;;;;;7.60;6.30;;;;;;;8.91;100.00;98046.55;109481;1253;58977;-72
2023/03/31 05:28:37;;;;;;;8.90;6.30;;;;;;;9.28;100.00;98046.20;109113;1253;59072;-72
2023/03/31 05:31:05;;;;;;;9.60;8.60;;;;;;;9.80;100.00;98041.80;109525;1252;66736;-73
2023/03/31 05:33:33;;;;;;;10.40;8.70;;;;;;;10.27;100.00;98035.78;109543;1253;59719;-73
2023/03/31 05:35:59;;;;;;;8.70;6.50;;;;;;;10.67;100.00;98035.56;109492;1252;62930;-73
2023/03/31 05:38:30;;;;;;;6.60;5.30;;;;;;;11.03;100.00;98037.54;109470;1252;59318;-73
2023/03/31 05:40:57;;;;;;;7.00;5.30;;;;;;;11.37;100.00;98034.50;109485;1252;58968;-73
2023/03/31 05:43:24;;;;;;;8.30;4.90;;;;;;;11.66;100.00;98030.35;109446;1252;66022;-72
2023/03/31 05:45:50;;;;;;;4.40;4.00;;;;;;;11.98;100.00;98024.20;109484;1252;60689;-73
2023/03/31 05:48:17;;;;;;;6.50;4.20;;;;;;;12.29;100.00;98028.96;109497;1253;65343;-73
2023/03/31 05:50:44;;;;;;;5.50;4.00;;;;;;;12.54;100.00;98029.18;109436;1253;59029;-73
2023/03/31 05:53:10;;;;;;;5.90;4.10;;;;;;;12.69;100.00;98031.39;109273;1256;59417;-73
2023/03/31 05:55:38;;;;;;;6.20;4.30;;;;;;;12.73;100.00;98026.74;109478;1252;65621;-73
2023/03/31 05:58:05;;;;;;;7.20;4.80;;;;;;;12.50;100.00;98025.60;109532;1252;61373;-73
2023/03/31 06:00:35;;;;;;;6.80;4.60;;;;;;;12.43;100.00;98028.89;109124;1253;64853;-73
2023/03/31 06:03:01;;;;;;;5.90;4.70;;;;;;;12.46;100.00;98030.24;109124;1252;59532;-73
2023/03/31 06:05:29;;;;;;;6.40;4.00;;;;;;;12.61;100.00;98028.89;109500;1252;58881;-73
2023/03/31 06:07:56;;;;;;;6.90;4.00;;;;;;;12.63;100.00;98027.29;109504;1252;67194;-72
2023/03/31 06:10:23;;;;;;;7.20;4.40;;;;;;;12.69;100.00;98022.13;109495;1252;60774;-73
2023/03/31 06:12:50;;;;;;;6.70;4.60;;;;;;;12.81;100.00;98024.11;109542;1252;63975;-73
2023/03/31 06:15:17;;;;;;;5.40;3.90;;;;;;;12.75;100.00;98024.75;109530;1251;59202;-73
2023/03/31 06:17:43;;;;;;;5.80;3.50;;;;;;;12.78;100.00;98026.27;109533;1252;59034;-72
2023/03/31 06:20:10;;;;;;;5.00;3.10;;;;;;;12.62;100.00;98030.09;109545;1253;67071;-73
2023/03/31 06:22:37;;;;;;;5.20;3.00;;;;;;;12.40;100.00;98032.39;109543;1253;59893;-73
2023/03/31 06:25:04;;;;;;;6.70;3.30;;;;;;;12.44;100.00;98029.00;109519;1252;64723;-73
2023/03/31 06:27:32;;;;;;;6.00;3.20;;;;;;;12.40;100.00;98029.08;109526;1252;59016;-73
2023/03/31 06:29:58;;;;;;;5.60;2.80;;;;;;;12.31;100.00;98029.28;109498;1252;59030;-73
2023/03/31 06:32:25;;;;;;;5.00;3.10;;;;;;;12.18;100.00;98029.90;109506;1252;64427;-72
2023/03/31 06:34:52;;;;;;;5.20;3.10;;;;;;;12.00;100.00;98029.25;109517;1252;60752;-73
2023/03/31 06:37:19;;;;;;;5.80;3.30;;;;;;;11.93;100.00;98018.74;109474;1253;64196;-73
2023/03/31 06:39:45;;;;;;;3.80;3.20;;;;;;;11.92;100.00;98012.08;109511;1252;58954;-73
2023/03/31 06:42:12;;;;;;;4.90;3.30;;;;;;;11.90;100.00;98012.85;109515;1251;58923;-72
2023/03/31 06:44:39;;;;;;;4.50;2.90;;;;;;;11.89;100.00;98010.41;109504;1253;66034;-72
2023/03/31 06:47:05;;;;;;;4.10;3.20;;;;;;;11.92;100.00;98011.93;109537;1252;60739;-72
2023/03/31 06:49:32;;;;;;;6.20;3.50;;;;;;;11.95;100.00;98012.53;109548;1253;63777;-72
2023/03/31 06:52:00;;;;;;;5.40;3.10;;;;;;;12.00;100.00;98017.30;109467;1252;59112;-73
2023/03/31 06:54:26;;;;;;;4.10;2.80;;;;;;;12.05;100.00;98016.11;109545;1252;59039;-73
2023/03/31 06:56:53;;;;;;;3.10;2.40;;;;;;;12.11;100.00;98015.06;109507;1253;67213;-73
2023/03/31 06:59:19;;;;;;;3.60;2.40;;;;;;;12.17;100.00;98017.02;109519;1252;61045;-73
2023/03/31 07:01:47;;;;;;;4.90;2.80;;;;;;;12.21;100.00;98016.27;109502;1251;63746;-73
2023/03/31 07:04:14;;;;;;;3.80;2.00;;;;;;;12.24;100.00;98017.13;109406;1253;59083;-73
2023/03/31 07:06:40;;;;;;;4.10;2.10;;;;;;;12.26;99.80;98019.06;109501;1252;59045;-73
2023/03/31 07:09:07;;;;;;;4.30;2.50;;;;;;;12.26;99.98;98016.15;109535;1252;65678;-73
2023/03/31 07:11:34;;;;;;;4.40;2.10;;;;;;;12.30;99.80;98012.66;109516;1252;59759;-73
2023/03/31 07:14:00;;;;;;;3.50;2.30;;;;;;;12.33;100.00;98007.58;109478;1252;72917;-73
2023/03/31 07:16:27;;;;;;;4.50;2.50;;;;;;;12.40;99.98;98004.86;109482;1252;58992;-73
2023/03/31 07:18:58;;;;;;;5.50;2.30;;;;;;;12.45;100.00;98002.37;109558;1251;58932;-72
2023/03/31 07:21:25;;;;;;;5.70;2.10;;;;;;;12.53;99.97;98004.36;109273;1254;66773;-73
2023/03/31 07:23:51;;;;;;;4.50;2.00;;;;;;;12.59;99.89;98003.61;109438;1253;60335;-73
2023/03/31 07:26:18;;;;;;;3.40;2.30;;;;;;;12.67;99.57;98003.39;109548;1252;63715;-73
2023/03/31 07:28:45;;;;;;;3.40;2.40;;;;;;;12.75;99.57;97998.76;109494;1252;58943;-73
2023/03/31 07:31:13;;;;;;;3.50;1.70;;;;;;;12.83;99.21;97997.52;109556;1253;59037;-73
2023/03/31 07:33:40;;;;;;;3.90;1.80;;;;;;;12.89;97.52;97992.64;109519;1253;66682;-73
2023/03/31 07:36:09;;;;;;;3.70;1.70;;;;;;;12.95;97.72;97990.73;109559;1253;60712;-73
2023/03/31 07:38:36;;;;;;;2.30;1.60;;;;;;;13.04;96.88;97987.17;109531;1252;65227;-73
2023/03/31 07:41:03;;;;;;;4.00;1.90;;;;;;;13.07;93.73;97988.88;109222;1254;59051;-72
2023/03/31 07:43:29;;;;;;;4.00;1.80;;;;;;;13.10;95.65;97982.84;109494;1252;58908;-73
2023/03/31 07:45:56;;;;;;;4.30;1.90;;;;;;;13.22;94.60;97979.95;109547;1252;67019;-73
2023/03/31 07:48:22;;;;;;;3.70;2.00;;;;;;;13.32;92.70;97978.88;109257;1254;60808;-73
2023/03/31 07:50:50;;;;;;;4.30;1.70;;;;;;;13.37;90.17;97976.05;109484;1252;64819;-73
2023/03/31 07:53:16;;;;;;;3.80;1.70;;;;;;;13.42;90.18;97973.98;109158;1252;59241;-73
2023/03/31 07:55:43;;;;;;;5.00;1.30;;;;;;;13.46;90.68;97974.87;109150;1252;58996;-73
2023/03/31 07:58:10;;;;;;;2.90;1.60;;;;;;;13.58;90.95;97967.17;109524;1252;66677;-73
2023/03/31 08:00:37;;;;;;;4.30;1.50;;;;;;;13.63;89.25;97966.14;109473;1252;60722;-73
2023/03/31 08:03:04;;;;;;;4.50;1.50;;;;;;;13.60;86.56;97967.07;109451;1253;64154;-73
2023/03/31 08:05:31;;;;;;;2.60;1.50;;;;;;;13.60;87.33;97962.64;109537;1252;59092;-73
2023/03/31 08:07:58;;;;;;;3.50;2.30;;;;;;;13.66;88.11;97959.44;109428;1252;58946;-72
2023/03/31 08:10:26;;;;;;;4.30;1.70;;;;;;;13.72;86.94;97956.36;109471;1252;67304;-73
2023/03/31 08:12:54;;;;;;;4.80;1.60;;;;;;;13.84;86.71;97956.79;109469;1253;59802;-73
2023/03/31 08:15:20;;;;;;;3.30;1.80;;;;;;;13.94;85.31;97954.36;109490;1252;64749;-73
2023/03/31 08:17:47;;;;;;;4.80;1.70;;;;;;;14.08;85.88;97952.48;109455;1252;59104;-73
2023/03/31 08:20:14;;;;;;;3.30;1.40;;;;;;;14.20;84.13;97949.14;109532;1252;58895;-73
2023/03/31 08:22:40;;;;;;;4.50;1.70;;;;;;;14.32;83.04;97948.16;109519;1252;67350;-73
2023/03/31 08:25:09;;;;;;;3.90;1.80;;;;;;;14.56;83.88;97943.58;109509;1252;61117;-73
2023/03/31 08:27:38;;;;;;;3.50;1.80;;;;;;;14.87;82.27;97934.60;109136;1252;65125;-73
2023/03/31 08:30:07;;;;;;;2.60;1.40;;;;;;;15.04;81.00;97931.98;109469;1252;59021;-73
2023/03/31 08:32:34;;;;;;;5.40;2.50;;;;;;;15.18;80.53;97926.77;109162;1253;59059;-73
2023/03/31 08:35:01;;;;;;;4.90;2.50;;;;;;;15.40;80.03;97917.77;109510;1253;66040;-73
2023/03/31 08:37:28;;;;;;;3.90;2.30;;;;;;;15.56;78.09;97911.20;109552;1251;61052;-73
2023/03/31 08:39:55;;;;;;;4.90;2.60;;;;;;;15.71;78.65;97905.52;109521;1252;65085;-73
2023/03/31 08:42:42;;;;;;;5.20;2.40;;;;;;;15.96;78.44;97901.11;109486;1252;59075;-73
2023/03/31 08:45:26;;;;;;;3.50;1.70;;;;;;;16.15;76.99;97897.05;109538;1254;59043;-73
2023/03/31 08:47:58;;;;;;;5.20;2.00;;;;;;;16.27;76.49;97889.52;109534;1253;65682;-73
2023/03/31 08:50:32;;;;;;;4.10;2.10;;;;;;;16.45;76.20;97886.31;109500;1253;60803;-72
2023/03/31 08:53:12;;;;;;;5.60;1.80;;;;;;;16.60;75.21;97881.84;109529;1253;64723;-72
2023/03/31 08:55:45;;;;;;;4.20;2.50;;;;;;;16.63;73.79;97873.20;109175;1252;59077;-72
2023/03/31 08:58:43;;;;;;;4.20;2.20;;;;;;;16.62;73.88;97872.13;109566;1252;59142;-73
2023/03/31 09:01:28;;;;;;;4.60;2.30;;;;;;;16.50;72.69;97867.36;109571;1251;66806;-72
2023/03/31 09:04:26;;;;;;;3.20;2.30;;;;;;;16.37;72.80;97864.40;109574;1251;61249;-72
2023/03/31 09:07:04;;;;;;;3.10;2.00;;;;;;;16.30;73.27;97863.41;109253;1251;64766;-72
2023/03/31 09:09:52;;;;;;;4.00;1.80;;;;;;;16.36;73.54;97855.59;109535;1255;59063;-72
2023/03/31 09:12:37;;;;;;;4.30;1.70;;;;;;;16.48;73.06;97853.16;109545;1254;58884;-72
2023/03/31 09:15:11;;;;;;;2.70;1.60;;;;;;;16.53;72.69;97848.16;109545;1253;66956;-72
2023/03/31 09:17:44;;;;;;;7.70;3.80;;;;;;;16.70;73.24;97849.39;109535;1252;60778;-72
2023/03/31 09:20:23;;;;;;;4.40;2.70;;;;;;;16.89;72.79;97842.80;109515;1254;65240;-72
2023/03/31 09:22:55;;;;;;;3.10;2.00;;;;;;;17.07;72.51;97832.99;109382;1252;156303;-72
2023/03/31 09:25:26;;;;;;;4.50;1.70;;;;;;;17.17;70.66;97833.91;109572;1252;58915;-72
2023/03/31 09:27:57;;;;;;;4.40;2.30;;;;;;;17.23;70.83;97824.95;109525;1253;66841;-72
2023/03/31 09:30:29;;;;;;;5.00;2.30;;;;;;;17.40;70.76;97823.98;109514;1252;60146;-72
2023/03/31 09:33:30;;;;;;;5.80;2.40;;;;;;;17.43;70.35;97820.23;109559;1253;64720;-72
2023/03/31 09:35:58;;;;;;;5.80;3.10;;;;;;;17.35;69.73;97819.89;109533;1252;59356;-72
2023/03/31 09:38:29;;;;;;;2.90;2.00;;;;;;;17.23;69.58;97818.52;109512;1252;58895;-72
2023/03/31 09:40:58;;;;;;;3.40;2.30;;;;;;;17.18;70.59;97812.44;109520;1252;67054;-72
2023/03/31 09:43:28;;;;;;;5.20;2.70;;;;;;;17.21;70.30;97806.04;109533;1252;61158;-72
2023/03/31 09:45:55;;;;;;;3.60;2.30;;;;;;;17.11;69.78;97801.60;109524;1253;64029;-72
2023/03/31 09:48:25;;;;;;;4.80;2.30;;;;;;;17.04;70.66;97795.91;109496;1252;59022;-72
2023/03/31 09:50:58;;;;;;;6.70;3.60;;;;;;;17.04;71.01;97791.93;109527;1252;59118;-72
2023/03/31 09:53:43;;;;;;;5.90;2.40;;;;;;;17.03;70.21;97788.77;109528;1252;66727;-72
2023/03/31 09:56:10;;;;;;;5.10;2.40;;;;;;;17.04;71.02;97784.90;109555;1253;59734;-72
2023/03/31 09:58:41;;;;;;;6.20;2.70;;;;;;;17.05;69.89;97781.27;109497;1252;64050;-73
2023/03/31 10:01:11;;;;;;;6.40;3.80;;;;;;;16.98;70.20;97778.86;109212;1252;59048;-72
2023/03/31 10:03:50;;;;;;;5.60;3.00;;;;;;;16.80;69.71;97768.20;109305;1251;59039;-72
2023/03/31 10:06:18;;;;;;;4.70;2.50;;;;;;;16.86;70.55;97760.41;109526;1252;65664;-72
2023/03/31 10:08:47;;;;;;;4.00;2.40;;;;;;;17.08;70.57;97768.90;109563;1252;61096;-72
2023/03/31 10:11:14;;;;;;;4.50;2.60;;;;;;;17.31;70.21;97765.91;109514;1251;63683;-72
2023/03/31 10:13:48;;;;;;;3.90;2.60;;;;;;;17.51;69.49;97769.88;109538;1252;59011;-71
2023/03/31 10:16:27;;;;;;;5.40;2.20;;;;;;;17.58;67.79;97768.42;109038;1252;59039;-72
2023/03/31 10:18:56;;;;;;;5.70;2.00;;;;;;;17.73;67.17;97769.11;109544;1252;67144;-72
2023/03/31 10:21:25;;;;;;;5.20;2.20;;;;;;;17.99;67.02;97764.89;109537;1251;61111;-72
2023/03/31 10:23:53;;;;;;;3.40;2.20;;;;;;;18.14;65.86;97765.41;109595;1252;65107;-72
2023/03/31 10:26:25;;;;;;;5.30;2.40;;;;;;;18.01;64.67;97766.79;109540;1251;59343;-72
2023/03/31 10:28:54;;;;;;;3.40;2.30;;;;;;;17.79;64.60;97762.92;109494;1252;58997;-72
2023/03/31 10:31:35;;;;;;;4.70;2.40;;;;;;;17.54;64.04;97763.77;109587;1252;66067;-72
2023/03/31 10:34:15;;;;;;;4.40;2.00;;;;;;;17.44;65.47;97760.48;109395;1251;58987;-72
2023/03/31 10:36:47;;;;;;;2.90;1.80;;;;;;;17.51;65.17;97749.54;109545;1252;65085;-71
2023/03/31 10:39:16;;;;;;;4.20;2.50;;;;;;;17.79;66.26;97745.97;109537;1252;59388;-72
2023/03/31 10:41:50;;;;;;;4.10;2.10;;;;;;;18.14;66.12;97741.42;109534;1253;59160;-72
2023/03/31 10:44:35;;;;;;;2.70;1.60;;;;;;;18.36;64.98;97742.37;109515;1252;67193;-71
2023/03/31 10:47:20;;;;;;;3.40;2.30;;;;;;;18.29;64.03;97747.16;109454;1253;61645;-72
2023/03/31 10:49:50;;;;;;;4.30;2.30;;;;;;;18.02;63.79;97746.88;109515;1253;64706;-72
2023/03/31 10:52:19;;;;;;;;;;;;;;;17.94;64.30;97742.15;109534;1252;58944;-74
2023/03/31 10:54:48;;;;;;;5.60;2.80;;;;;;;17.91;63.93;97744.30;109527;1252;58947;-72
2023/03/31 10:57:17;;;;;;;5.10;2.50;;;;;;;17.86;64.00;97740.19;109515;1252;65674;-71
2023/03/31 11:00:04;;;;;;;4.70;2.70;;;;;;;17.75;63.52;97731.42;109574;1252;60832;-72
2023/03/31 11:02:50;;;;;;;7.00;3.20;;;;;;;17.53;63.22;97734.48;109540;1252;64349;-72
2023/03/31 11:05:28;;;;;;;5.50;3.10;;;;;;;17.38;64.32;97732.24;109485;1253;59208;-72
2023/03/31 11:08:28;;;;;;;4.00;2.90;;;;;;;17.42;65.14;97727.61;109528;1252;59022;-72
2023/03/31 11:10:57;;;;;;;5.30;2.70;;;;;;;17.49;64.78;97720.95;109529;1253;65925;-72
2023/03/31 11:13:24;;;;;;;4.30;2.80;;;;;;;17.53;64.27;97716.64;109507;1253;59877;-72
2023/03/31 11:16:22;;;;;;;3.30;2.50;;;;;;;17.55;64.01;97709.61;109502;1253;64742;-72
2023/03/31 11:19:02;;;;;;;5.40;2.20;;;;;;;17.74;63.50;97709.02;108877;1262;59134;-72
2023/03/31 11:21:58;;;;;;;5.40;2.40;;;;;;;18.00;62.96;97704.86;108897;1260;59081;-72
2023/03/31 11:24:49;;;;;;;5.30;2.10;;;;;;;18.26;62.61;97693.45;108452;1267;67027;-72
2023/03/31 11:27:30;;;;;;;3.40;2.20;;;;;;;18.46;62.44;97688.89;107890;1273;61270;-73
2023/03/31 11:30:08;;;;;;;5.90;2.90;;;;;;;18.44;61.26;97685.51;107873;1272;64789;-73
2023/03/31 11:33:01;;;;;;;4.90;2.60;;;;;;;18.33;61.41;97679.26;107866;1273;59097;-72
2023/03/31 11:35:43;;;;;;;3.40;2.70;;;;;;;18.28;62.14;97677.14;107274;1278;59045;-73
2023/03/31 11:38:35;;;;;;;5.30;2.80;;;;;;;18.30;62.02;97676.15;107293;1279;66841;-73
2023/03/31 11:41:13;;;;;;;4.20;2.50;;;;;;;18.41;62.41;97670.70;107268;1279;60842;-73
2023/03/31 11:43:49;;;;;;;2.80;2.10;;;;;;;18.62;62.80;97664.36;107270;1278;63738;-73
2023/03/31 11:46:26;;;;;;;3.10;2.10;;;;;;;18.83;63.32;97654.15;106893;1282;59213;-72
2023/03/31 11:48:58;;;;;;;3.50;1.90;;;;;;;18.94;62.26;97649.73;107072;1281;59218;-72